createdAt,value
2022-12-18T00:01:07.338Z,103059.53
2022-12-18T00:03:37.030Z,103055.22
2022-12-18T00:06:04.196Z,103051.03
2022-12-18T00:08:30.801Z,103049.31
2022-12-18T00:11:07.021Z,103044.06
2022-12-18T00:13:34.283Z,103038.97
2022-12-18T00:16:06.052Z,103040.88
2022-12-18T00:18:33.768Z,103035.81
2022-12-18T00:21:02.509Z,103034.94
2022-12-18T00:23:30.339Z,103039.19
2022-12-18T00:26:01.255Z,103041.78
2022-12-18T00:28:27.955Z,103046.91
2022-12-18T00:31:12.616Z,103046.84
2022-12-18T00:33:39.892Z,103039.91
2022-12-18T00:36:10.059Z,103032.22
2022-12-18T00:38:37.272Z,103033.06
2022-12-18T00:41:04.541Z,103032.38
2022-12-18T00:43:31.033Z,103033.19
2022-12-18T00:45:57.522Z,103035.72
2022-12-18T00:48:24.091Z,103038.25
2022-12-18T00:50:51.552Z,103042.56
2022-12-18T00:53:19.250Z,103044.41
2022-12-18T00:55:46.725Z,103034.13
2022-12-18T00:58:14.640Z,103041.91
2022-12-18T01:00:41.888Z,103024.78
2022-12-18T01:03:08.968Z,103036.84
2022-12-18T01:05:35.606Z,103031.78
2022-12-18T01:08:02.174Z,103033.56
2022-12-18T01:10:28.685Z,103016.47
2022-12-18T01:12:55.123Z,103020.81
2022-12-18T01:15:21.695Z,103025.13
2022-12-18T01:17:48.194Z,103027.78
2022-12-18T01:20:15.012Z,103022.63
2022-12-18T01:22:41.766Z,103027.59
2022-12-18T01:25:09.125Z,103032.72
2022-12-18T01:27:35.771Z,103041.28
2022-12-18T01:30:02.464Z,103044.75
2022-12-18T01:32:31.985Z,103045.66
2022-12-18T01:34:58.826Z,103049.22
2022-12-18T01:37:25.571Z,103057.06
2022-12-18T01:39:55.311Z,103055.31
2022-12-18T01:42:22.613Z,103054.44
2022-12-18T01:45:22.474Z,103051.09
2022-12-18T01:47:52.097Z,103048.66
2022-12-18T01:50:23.136Z,103051.34
2022-12-18T01:53:03.233Z,103057.41
2022-12-18T01:55:34.084Z,103044.66
2022-12-18T01:58:01.575Z,103051.63
2022-12-18T02:00:29.067Z,103048.34
2022-12-18T02:02:55.882Z,103052.78
2022-12-18T02:05:41.907Z,103059.78
2022-12-18T02:08:17.154Z,103066.00
2022-12-18T02:11:15.105Z,103066.19
2022-12-18T02:13:57.156Z,103072.34
2022-12-18T02:17:02.483Z,103054.53
2022-12-18T02:19:48.194Z,103050.47
2022-12-18T02:22:42.575Z,103055.66
2022-12-18T02:25:33.581Z,103054.88
2022-12-18T02:28:02.735Z,103056.66
2022-12-18T02:30:34.070Z,103072.09
2022-12-18T02:33:04.984Z,103071.25
2022-12-18T02:35:34.681Z,103057.56
2022-12-18T02:38:04.148Z,103067.03
2022-12-18T02:40:31.398Z,103062.88
2022-12-18T02:43:13.405Z,103055.31
2022-12-18T02:45:53.308Z,103052.75
2022-12-18T02:48:24.394Z,103043.44
2022-12-18T02:51:21.800Z,103040.13
2022-12-18T02:54:17.087Z,103044.44
2022-12-18T02:56:51.541Z,103045.31
2022-12-18T02:59:32.951Z,103041.91
2022-12-18T03:02:03.669Z,103039.38
2022-12-18T03:04:44.687Z,103039.44
2022-12-18T03:07:19.497Z,103030.06
2022-12-18T03:09:49.482Z,103027.56
2022-12-18T03:12:24.812Z,103022.47
2022-12-18T03:15:18.331Z,103033.75
2022-12-18T03:17:53.764Z,103026.06
2022-12-18T03:20:23.400Z,103026.06
2022-12-18T03:22:57.141Z,103021.00
2022-12-18T03:25:26.606Z,103024.47
2022-12-18T03:27:58.874Z,103015.97
2022-12-18T03:30:27.495Z,103016.03
2022-12-18T03:33:08.212Z,103013.56
2022-12-18T03:35:40.157Z,103005.19
2022-12-18T03:38:08.139Z,102999.16
2022-12-18T03:41:07.461Z,102992.41
2022-12-18T03:43:51.954Z,103006.09
2022-12-18T03:46:31.035Z,102989.88
2022-12-18T03:49:09.678Z,102984.84
2022-12-18T03:51:46.174Z,102992.66
2022-12-18T03:54:13.915Z,102989.25
2022-12-18T03:56:45.213Z,102986.63
2022-12-18T03:59:16.083Z,102996.06
2022-12-18T04:01:52.587Z,102989.25
2022-12-18T04:04:20.755Z,102993.53
2022-12-18T04:06:50.645Z,102985.94
2022-12-18T04:09:17.318Z,102979.19
2022-12-18T04:11:46.981Z,102975.81
2022-12-18T04:14:17.673Z,102979.31
2022-12-18T04:16:44.984Z,102981.03
2022-12-18T04:19:11.535Z,102966.53
2022-12-18T04:21:38.151Z,102958.06
2022-12-18T04:24:05.059Z,102966.63
2022-12-18T04:26:31.775Z,102967.59
2022-12-18T04:28:58.261Z,102951.44
2022-12-18T04:31:24.947Z,102955.72
2022-12-18T04:33:54.602Z,102957.41
2022-12-18T04:36:21.139Z,102958.28
2022-12-18T04:38:47.745Z,102955.66
2022-12-18T04:41:14.304Z,102954.00
2022-12-18T04:43:41.273Z,102955.72
2022-12-18T04:46:09.108Z,102959.19
2022-12-18T04:48:36.532Z,102973.72
2022-12-18T04:51:03.591Z,102968.63
2022-12-18T04:53:30.159Z,102979.78
2022-12-18T04:56:08.077Z,102994.31
2022-12-18T04:58:34.653Z,102983.25
2022-12-18T05:01:01.450Z,102993.59
2022-12-18T05:03:28.309Z,102991.94
2022-12-18T05:05:54.782Z,103001.34
2022-12-18T05:08:21.557Z,103005.69
2022-12-18T05:10:48.013Z,103014.31
2022-12-18T05:13:14.669Z,103016.00
2022-12-18T05:15:42.753Z,103009.19
2022-12-18T05:18:09.601Z,103009.19
2022-12-18T05:20:36.100Z,103016.06
2022-12-18T05:23:02.692Z,103028.84
2022-12-18T05:25:29.327Z,103022.88
2022-12-18T05:27:56.113Z,103025.44
2022-12-18T05:30:23.468Z,103027.13
2022-12-18T05:32:49.923Z,103044.19
2022-12-18T05:35:16.593Z,103042.50
2022-12-18T05:37:43.652Z,103038.34
2022-12-18T05:40:11.159Z,103035.81
2022-12-18T05:42:37.938Z,103034.06
2022-12-18T05:45:05.828Z,103028.97
2022-12-18T05:47:32.551Z,103018.75
2022-12-18T05:49:59.086Z,103017.22
2022-12-18T05:52:25.635Z,103014.78
2022-12-18T05:54:52.212Z,103008.91
2022-12-18T05:57:18.692Z,103005.53
2022-12-18T05:59:45.296Z,102999.59
2022-12-18T06:02:12.010Z,103007.28
2022-12-18T06:04:38.627Z,103001.38
2022-12-18T06:07:05.172Z,103001.44
2022-12-18T06:09:31.824Z,102999.66
2022-12-18T06:11:58.505Z,102998.75
2022-12-18T06:14:24.999Z,102997.03
2022-12-18T06:16:53.326Z,102991.91
2022-12-18T06:19:19.877Z,102983.34
2022-12-18T06:21:46.447Z,102982.50
2022-12-18T06:24:13.066Z,102981.66
2022-12-18T06:26:40.201Z,102980.06
2022-12-18T06:29:07.020Z,102976.69
2022-12-18T06:31:33.759Z,102975.03
2022-12-18T06:34:02.685Z,102972.47
2022-12-18T06:36:29.669Z,102975.06
2022-12-18T06:38:57.952Z,102966.53
2022-12-18T06:41:25.004Z,102964.88
2022-12-18T06:43:53.552Z,102963.22
2022-12-18T06:46:22.223Z,102964.09
2022-12-18T06:48:50.862Z,102960.66
2022-12-18T06:51:22.270Z,102947.84
2022-12-18T06:53:48.890Z,102950.44
2022-12-18T06:56:15.493Z,102950.44
2022-12-18T06:58:42.106Z,102940.16
2022-12-18T07:01:11.396Z,102940.16
2022-12-18T07:03:40.008Z,102932.50
2022-12-18T07:06:07.485Z,102924.88
2022-12-18T07:08:34.816Z,102930.78
2022-12-18T07:11:04.676Z,102931.63
2022-12-18T07:13:31.374Z,102935.09
2022-12-18T07:16:18.448Z,102927.41
2022-12-18T07:18:49.321Z,102928.22
2022-12-18T07:21:19.303Z,102923.16
2022-12-18T07:23:48.825Z,102918.16
2022-12-18T07:26:17.666Z,102923.25
2022-12-18T07:28:44.796Z,102922.34
2022-12-18T07:31:14.619Z,102925.78
2022-12-18T07:33:42.018Z,102918.94
2022-12-18T07:36:10.753Z,102907.06
2022-12-18T07:38:37.656Z,102895.09
2022-12-18T07:41:12.379Z,102889.97
2022-12-18T07:43:40.451Z,102901.03
2022-12-18T07:46:09.492Z,102899.34
2022-12-18T07:48:36.154Z,102879.69
2022-12-18T07:51:07.585Z,102872.84
2022-12-18T07:53:35.556Z,102877.13
2022-12-18T07:56:26.508Z,102866.81
2022-12-18T07:58:52.664Z,102863.34
2022-12-18T08:01:19.184Z,102869.28
2022-12-18T08:03:47.765Z,102863.28
2022-12-18T08:06:14.722Z,102866.66
2022-12-18T08:08:43.222Z,102870.00
2022-12-18T08:11:10.047Z,102857.13
2022-12-18T08:13:36.687Z,102849.44
2022-12-18T08:16:07.025Z,102847.63
2022-12-18T08:18:35.270Z,102845.81
2022-12-18T08:21:20.451Z,102848.31
2022-12-18T08:23:48.785Z,102866.13
2022-12-18T08:26:16.351Z,102860.91
2022-12-18T08:28:43.197Z,102865.09
2022-12-18T08:31:10.092Z,102861.63
2022-12-18T08:33:39.041Z,102878.63
2022-12-18T08:36:06.452Z,102882.84
2022-12-18T08:38:33.699Z,102880.25
2022-12-18T08:41:04.733Z,102882.69
2022-12-18T08:43:49.861Z,102885.19
2022-12-18T08:46:16.480Z,102877.50
2022-12-18T08:48:43.061Z,102862.91
2022-12-18T08:51:10.684Z,102867.16
2022-12-18T08:53:38.451Z,102872.22
2022-12-18T08:56:05.850Z,102875.53
2022-12-18T08:58:32.497Z,102866.00
2022-12-18T09:01:06.530Z,102871.91
2022-12-18T09:03:33.602Z,102872.59
2022-12-18T09:06:00.614Z,102887.00
2022-12-18T09:08:27.785Z,102880.03
2022-12-18T09:10:54.351Z,102884.97
2022-12-18T09:13:21.106Z,102871.97
2022-12-18T09:15:53.080Z,102863.28
2022-12-18T09:18:22.421Z,102861.44
2022-12-18T09:20:49.045Z,102861.31
2022-12-18T09:23:15.851Z,102858.53
2022-12-18T09:25:42.583Z,102854.09
2022-12-18T09:28:15.568Z,102864.13
2022-12-18T09:30:47.476Z,102857.13
2022-12-18T09:33:14.705Z,102859.47
2022-12-18T09:35:42.835Z,102855.81
2022-12-18T09:38:13.661Z,102844.56
2022-12-18T09:40:48.397Z,102840.84
2022-12-18T09:43:39.492Z,102836.34
2022-12-18T09:46:11.387Z,102836.97
2022-12-18T09:48:44.972Z,102834.25
2022-12-18T09:51:19.421Z,102836.69
2022-12-18T09:53:56.692Z,102832.16
2022-12-18T09:56:24.100Z,102822.56
2022-12-18T09:58:58.913Z,102817.22
2022-12-18T10:01:30.322Z,102816.16
2022-12-18T10:04:02.247Z,102813.31
2022-12-18T10:06:33.307Z,102815.72
2022-12-18T10:09:08.929Z,102805.19
2022-12-18T10:11:55.054Z,102810.06
2022-12-18T10:14:34.007Z,102806.41
2022-12-18T10:17:25.282Z,102809.66
2022-12-18T10:19:57.359Z,102802.59
2022-12-18T10:22:39.079Z,102794.72
2022-12-18T10:25:20.925Z,102794.56
2022-12-18T10:27:48.211Z,102795.25
2022-12-18T10:30:22.204Z,102795.09
2022-12-18T10:32:48.796Z,102796.72
2022-12-18T10:35:25.019Z,102788.84
2022-12-18T10:38:29.210Z,102783.53
2022-12-18T10:40:58.524Z,102779.00
2022-12-18T10:43:36.694Z,102788.31
2022-12-18T10:46:09.151Z,102795.97
2022-12-18T10:48:38.150Z,102781.25
2022-12-18T10:51:12.145Z,102779.34
2022-12-18T10:53:42.442Z,102769.69
2022-12-18T10:56:09.903Z,102766.09
2022-12-18T10:58:39.528Z,102762.50
2022-12-18T11:01:09.491Z,102757.16
2022-12-18T11:03:39.293Z,102755.34
2022-12-18T11:06:07.885Z,102765.47
2022-12-18T11:08:34.658Z,102747.25
2022-12-18T11:11:01.697Z,102749.72
2022-12-18T11:13:31.617Z,102743.56
2022-12-18T11:15:59.044Z,102730.59
2022-12-18T11:18:35.421Z,102728.66
2022-12-18T11:21:08.856Z,102731.09
2022-12-18T11:23:37.210Z,102720.69
2022-12-18T11:26:07.048Z,102711.09
2022-12-18T11:28:48.218Z,102707.44
2022-12-18T11:31:28.763Z,102712.41
2022-12-18T11:34:30.650Z,102712.19
2022-12-18T11:37:00.121Z,102716.34
2022-12-18T11:39:57.654Z,102720.44
2022-12-18T11:42:33.799Z,102712.44
2022-12-18T11:45:02.513Z,102713.19
2022-12-18T11:47:47.817Z,102703.53
2022-12-18T11:50:23.046Z,102705.13
2022-12-18T11:52:55.946Z,102697.28
2022-12-18T11:55:29.934Z,102695.41
2022-12-18T11:58:15.589Z,102690.97
2022-12-18T12:00:55.473Z,102682.31
2022-12-18T12:03:48.542Z,102677.13
2022-12-18T12:06:56.480Z,102680.53
2022-12-18T12:10:10.637Z,102670.13
2022-12-18T12:12:58.467Z,102655.44
2022-12-18T12:16:02.493Z,102648.41
2022-12-18T12:19:19.689Z,102650.03
2022-12-18T12:22:19.942Z,102645.56
2022-12-18T12:24:58.525Z,102647.13
2022-12-18T12:27:33.757Z,102640.22
2022-12-18T12:30:38.150Z,102639.25
2022-12-18T12:33:19.735Z,102639.91
2022-12-18T12:36:04.977Z,102638.88
2022-12-18T12:38:46.858Z,102622.44
2022-12-18T12:41:40.601Z,102629.19
2022-12-18T12:44:15.311Z,102625.72
2022-12-18T12:46:44.662Z,102610.97
2022-12-18T12:49:16.493Z,102609.19
2022-12-18T12:51:48.682Z,102612.59
2022-12-18T12:54:21.139Z,102597.84
2022-12-18T12:57:03.271Z,102596.97
2022-12-18T12:59:30.301Z,102595.97
2022-12-18T13:02:15.144Z,102589.03
2022-12-18T13:05:23.815Z,102594.19
2022-12-18T13:08:12.030Z,102589.84
2022-12-18T13:10:43.292Z,102590.69
2022-12-18T13:13:21.188Z,102593.22
2022-12-18T13:16:06.066Z,102591.53
2022-12-18T13:18:34.198Z,102595.72
2022-12-18T13:21:03.324Z,102595.72
2022-12-18T13:23:38.313Z,102591.41
2022-12-18T13:26:09.011Z,102599.09
2022-12-18T13:28:47.873Z,102592.09
2022-12-18T13:31:14.457Z,102586.09
2022-12-18T13:34:16.939Z,102581.78
2022-12-18T13:36:34.848Z,102572.25
2022-12-18T13:39:26.517Z,102579.19
2022-12-18T13:42:56.339Z,102576.59
2022-12-18T13:45:43.363Z,102560.19
2022-12-18T13:48:23.602Z,102556.84
2022-12-18T13:50:57.573Z,102545.66
2022-12-18T13:53:29.301Z,102542.16
2022-12-18T13:55:56.128Z,102536.16
2022-12-18T13:58:23.369Z,102537.09
2022-12-18T14:00:49.941Z,102537.91
2022-12-18T14:03:22.457Z,102538.75
2022-12-18T14:05:56.657Z,102535.25
2022-12-18T14:08:29.262Z,102531.84
2022-12-18T14:10:56.309Z,102523.16
2022-12-18T14:13:31.266Z,102524.09
2022-12-18T14:15:59.036Z,102531.75
2022-12-18T14:18:28.324Z,102517.94
2022-12-18T14:21:03.423Z,102505.03
2022-12-18T14:23:42.161Z,102505.88
2022-12-18T14:26:28.196Z,102499.84
2022-12-18T14:28:56.447Z,102494.69
2022-12-18T14:31:25.467Z,102490.28
2022-12-18T14:33:53.377Z,102480.78
2022-12-18T14:36:25.266Z,102477.34
2022-12-18T14:38:57.481Z,102477.34
2022-12-18T14:41:25.489Z,102484.28
2022-12-18T14:43:54.849Z,102485.09
2022-12-18T14:46:33.946Z,102478.28
2022-12-18T14:49:06.857Z,102484.34
2022-12-18T14:51:35.252Z,102474.03
2022-12-18T14:54:15.710Z,102456.75
2022-12-18T14:56:52.079Z,102458.50
2022-12-18T14:59:24.823Z,102465.47
2022-12-18T15:02:05.401Z,102457.72
2022-12-18T15:04:35.585Z,102462.84
2022-12-18T15:07:19.690Z,102461.09
2022-12-18T15:10:11.424Z,102461.09
2022-12-18T15:12:42.670Z,102463.72
2022-12-18T15:15:34.482Z,102459.34
2022-12-18T15:18:11.467Z,102446.56
2022-12-18T15:20:44.100Z,102449.94
2022-12-18T15:23:27.140Z,102449.97
2022-12-18T15:26:02.374Z,102446.44
2022-12-18T15:28:48.893Z,102445.38
2022-12-18T15:31:17.036Z,102452.34
2022-12-18T15:33:53.959Z,102448.94
2022-12-18T15:36:26.533Z,102451.59
2022-12-18T15:38:57.878Z,102447.19
2022-12-18T15:41:35.249Z,102452.34
2022-12-18T15:44:03.943Z,102455.84
2022-12-18T15:46:32.005Z,102460.19
2022-12-18T15:49:02.314Z,102456.69
2022-12-18T15:51:34.553Z,102447.25
2022-12-18T15:54:07.215Z,102443.75
2022-12-18T15:56:52.279Z,102435.13
2022-12-18T15:59:23.739Z,102435.19
2022-12-18T16:01:53.944Z,102421.34
2022-12-18T16:04:22.603Z,102412.75
2022-12-18T16:09:37.828Z,102411.09
2022-12-18T16:12:04.836Z,102402.41
2022-12-18T16:14:31.953Z,102410.16
2022-12-18T16:17:03.550Z,102397.25
2022-12-18T16:19:30.728Z,102393.81
2022-12-18T16:21:58.797Z,102388.59
2022-12-18T16:24:28.608Z,102385.09
2022-12-18T16:26:57.263Z,102375.59
2022-12-18T16:29:27.782Z,102385.84
2022-12-18T16:31:55.419Z,102376.38
2022-12-18T16:34:23.450Z,102361.72
2022-12-18T16:36:54.396Z,102359.88
2022-12-18T16:39:22.365Z,102352.13
2022-12-18T16:41:50.329Z,102347.78
2022-12-18T16:44:17.437Z,102350.22
2022-12-18T16:46:46.395Z,102342.56
2022-12-18T16:49:18.560Z,102346.88
2022-12-18T16:51:46.809Z,102342.47
2022-12-18T16:54:19.023Z,102346.72
2022-12-18T16:56:48.035Z,102341.53
2022-12-18T16:59:14.753Z,102343.31
2022-12-18T17:01:42.571Z,102340.66
2022-12-18T17:04:09.648Z,102338.06
2022-12-18T17:06:41.646Z,102344.91
2022-12-18T17:09:12.783Z,102342.31
2022-12-18T17:11:39.501Z,102339.75
2022-12-18T17:14:25.318Z,102338.91
2022-12-18T17:17:20.377Z,102334.56
2022-12-18T17:19:43.744Z,102344.00
2022-12-18T17:22:10.412Z,102344.00
2022-12-18T17:24:37.485Z,102341.41
2022-12-18T17:27:04.752Z,102343.94
2022-12-18T17:29:31.599Z,102333.59
2022-12-18T17:32:00.412Z,102339.59
2022-12-18T17:34:27.578Z,102337.75
2022-12-18T17:36:54.272Z,102324.84
2022-12-18T17:39:21.459Z,102333.44
2022-12-18T17:41:49.374Z,102339.38
2022-12-18T17:44:16.876Z,102339.38
2022-12-18T17:46:46.709Z,102335.03
2022-12-18T17:49:14.215Z,102334.97
2022-12-18T17:51:43.178Z,102335.81
2022-12-18T17:54:10.696Z,102340.06
2022-12-18T17:56:37.925Z,102333.06
2022-12-18T17:59:04.627Z,102328.78
2022-12-18T18:01:31.220Z,102331.31
2022-12-18T18:04:00.213Z,102334.75
2022-12-18T18:06:27.238Z,102326.16
2022-12-18T18:08:54.151Z,102333.75
2022-12-18T18:11:41.310Z,102333.75
2022-12-18T18:14:15.467Z,102334.59
2022-12-18T18:16:44.634Z,102336.34
2022-12-18T18:19:14.766Z,102338.75
2022-12-18T18:21:44.200Z,102333.53
2022-12-18T18:24:13.546Z,102334.38
2022-12-18T18:26:41.619Z,102329.09
2022-12-18T18:29:08.825Z,102329.97
2022-12-18T18:31:40.803Z,102335.97
2022-12-18T18:34:08.207Z,102330.81
2022-12-18T18:36:34.957Z,102329.78
2022-12-18T18:39:02.156Z,102319.44
2022-12-18T18:41:30.621Z,102323.66
2022-12-18T18:43:58.694Z,102324.41
2022-12-18T18:46:25.898Z,102324.41
2022-12-18T18:48:52.738Z,102317.50
2022-12-18T18:51:21.117Z,102317.50
2022-12-18T18:53:50.487Z,102316.47
2022-12-18T18:56:45.465Z,102307.84
2022-12-18T18:59:06.503Z,102301.66
2022-12-18T19:01:33.162Z,102303.19
2022-12-18T19:04:01.138Z,102299.69
2022-12-18T19:06:28.493Z,102312.63
2022-12-18T19:08:57.210Z,102305.69
2022-12-18T19:11:44.148Z,102294.50
2022-12-18T19:14:12.977Z,102299.59
2022-12-18T19:16:39.675Z,102308.13
2022-12-18T19:19:07.046Z,102302.13
2022-12-18T19:21:34.877Z,102305.44
2022-12-18T19:24:05.055Z,102297.63
2022-12-18T19:26:31.659Z,102295.63
2022-12-18T19:29:06.053Z,102299.00
2022-12-18T19:31:35.993Z,102297.25
2022-12-18T19:34:03.790Z,102292.06
2022-12-18T19:36:31.270Z,102299.66
2022-12-18T19:39:00.219Z,102305.59
2022-12-18T19:41:27.546Z,102299.44
2022-12-18T19:43:57.145Z,102306.28
2022-12-18T19:46:23.876Z,102300.16
2022-12-18T19:48:51.585Z,102315.63
2022-12-18T19:51:22.842Z,102307.78
2022-12-18T19:53:54.949Z,102305.13
2022-12-18T19:56:26.909Z,102301.69
2022-12-18T19:58:55.061Z,102309.38
2022-12-18T20:01:24.150Z,102300.69
2022-12-18T20:03:53.748Z,102300.69
2022-12-18T20:06:34.276Z,102295.63
2022-12-18T20:09:04.418Z,102292.19
2022-12-18T20:11:32.351Z,102288.75
2022-12-18T20:13:58.920Z,102300.00
2022-12-18T20:16:25.611Z,102293.09
2022-12-18T20:18:52.462Z,102293.19
2022-12-18T20:21:19.673Z,102294.84
2022-12-18T20:23:46.735Z,102295.81
2022-12-18T20:26:13.283Z,102294.16
2022-12-18T20:28:40.724Z,102289.91
2022-12-18T20:31:08.485Z,102297.59
2022-12-18T20:33:37.486Z,102309.63
2022-12-18T20:36:10.512Z,102295.81
2022-12-18T20:38:39.037Z,102302.69
2022-12-18T20:41:10.973Z,102290.66
2022-12-18T20:43:39.158Z,102293.25
2022-12-18T20:46:09.291Z,102285.47
2022-12-18T20:48:36.297Z,102282.88
2022-12-18T20:51:06.059Z,102284.66
2022-12-18T20:53:33.481Z,102275.22
2022-12-18T20:56:01.569Z,102276.00
2022-12-18T20:58:28.267Z,102278.56
2022-12-18T21:01:08.652Z,102267.38
2022-12-18T21:03:35.554Z,102266.47
2022-12-18T21:06:02.232Z,102265.63
2022-12-18T21:08:28.704Z,102248.34
2022-12-18T21:10:55.916Z,102243.19
2022-12-18T21:13:22.935Z,102240.59
2022-12-18T21:15:49.558Z,102237.09
2022-12-18T21:18:16.129Z,102240.59
2022-12-18T21:20:42.633Z,102234.50
2022-12-18T21:23:16.227Z,102233.56
2022-12-18T21:25:43.472Z,102231.81
2022-12-18T21:28:09.908Z,102233.56
2022-12-18T21:30:36.570Z,102224.06
2022-12-18T21:33:03.259Z,102221.47
2022-12-18T21:35:29.797Z,102226.56
2022-12-18T21:37:58.741Z,102217.06
2022-12-18T21:40:25.311Z,102217.88
2022-12-18T21:43:10.396Z,102220.47
2022-12-18T21:45:40.511Z,102216.06
2022-12-18T21:48:07.055Z,102222.06
2022-12-18T21:50:33.525Z,102216.06
2022-12-18T21:53:00.102Z,102202.94
2022-12-18T21:55:26.649Z,102215.88
2022-12-18T21:57:54.692Z,102205.47
2022-12-18T22:00:21.579Z,102195.00
2022-12-18T22:03:17.848Z,102181.19
2022-12-18T22:05:35.291Z,102182.84
2022-12-18T22:08:01.804Z,102191.34
2022-12-18T22:10:28.650Z,102174.09
2022-12-18T22:12:55.235Z,102174.81
2022-12-18T22:15:22.155Z,102179.16
2022-12-18T22:17:50.995Z,102176.56
2022-12-18T22:20:19.965Z,102172.22
2022-12-18T22:22:48.202Z,102160.13
2022-12-18T22:25:14.866Z,102158.28
2022-12-18T22:27:41.323Z,102147.94
2022-12-18T22:30:08.449Z,102134.06
2022-12-18T22:32:36.139Z,102123.66
2022-12-18T22:35:09.499Z,102116.72
2022-12-18T22:37:40.794Z,102110.50
2022-12-18T22:40:07.927Z,102100.97
2022-12-18T22:42:35.295Z,102097.56
2022-12-18T22:45:01.832Z,102081.13
2022-12-18T22:47:30.513Z,102081.13
2022-12-18T22:49:57.869Z,102080.22
2022-12-18T22:52:25.082Z,102081.97
2022-12-18T22:54:53.333Z,102072.44
2022-12-18T22:57:21.693Z,102081.13
2022-12-18T22:59:49.132Z,102082.88
2022-12-18T23:02:15.839Z,102081.13
2022-12-18T23:04:42.439Z,102086.22
2022-12-18T23:07:09.048Z,102083.63
2022-12-18T23:09:37.746Z,102072.28
2022-12-18T23:12:04.693Z,102062.81
2022-12-18T23:14:31.807Z,102039.44
2022-12-18T23:16:58.327Z,102029.91
2022-12-18T23:19:25.406Z,102029.00
2022-12-18T23:21:51.996Z,102033.28
2022-12-18T23:24:21.028Z,102025.50
2022-12-18T23:26:47.494Z,102040.09
2022-12-18T23:29:14.092Z,102040.94
2022-12-18T23:31:40.732Z,102033.16
2022-12-18T23:34:07.850Z,102031.34
2022-12-18T23:36:45.334Z,102027.00
2022-12-18T23:39:15.449Z,102026.81
2022-12-18T23:41:57.742Z,102008.59
2022-12-18T23:44:24.344Z,101995.53
2022-12-18T23:46:50.946Z,101986.00
2022-12-18T23:49:17.497Z,101979.94
2022-12-18T23:51:43.941Z,101977.16
2022-12-18T23:54:10.859Z,101976.25
2022-12-18T23:56:37.445Z,101996.94
2022-12-18T23:59:03.964Z,101988.25
